Time;durP1;ratioP1;P1;durP2;ratioP2;P2;SDS_P1;SDS_P2;PMS_P1;PMS_P2;Temp;Humidity;BMP_temperature;BMP_pressure;BME280_temperature;BME280_humidity;BME280_pressure;Samples;Min_cycle;Max_cycle;Signal;HPM_P1;HPM_P2
2023/08/06 00:02:18;;;;;;;4.35;2.38;;;15.90;99.90;;;;;;5003220;28;20109;-40
2023/08/06 00:04:44;;;;;;;3.60;2.40;;;15.80;99.90;;;;;;5002262;28;20025;-39
2023/08/06 00:07:09;;;;;;;2.42;2.22;;;15.80;99.90;;;;;;5000118;28;20069;-40
2023/08/06 00:09:35;;;;;;;3.58;2.33;;;15.80;99.90;;;;;;4998166;28;20558;-38
2023/08/06 00:12:01;;;;;;;2.65;2.25;;;15.80;99.90;;;;;;5000627;28;20133;-38
2023/08/06 00:14:26;;;;;;;2.63;2.40;;;15.70;99.90;;;;;;5001456;28;20034;-39
2023/08/06 00:16:52;;;;;;;2.33;2.03;;;15.70;99.90;;;;;;5008612;28;20033;-39
2023/08/06 00:19:18;;;;;;;3.65;2.45;;;15.60;99.90;;;;;;4998310;28;20022;-41
2023/08/06 00:21:43;;;;;;;2.63;2.30;;;15.70;99.90;;;;;;5007560;28;20471;-37
2023/08/06 00:24:09;;;;;;;2.95;2.25;;;15.70;99.90;;;;;;5006869;28;20108;-40
2023/08/06 00:26:34;;;;;;;2.78;2.42;;;15.70;99.90;;;;;;5006054;28;20108;-38
2023/08/06 00:29:00;;;;;;;3.40;2.53;;;15.60;99.90;;;;;;5020096;28;20103;-41
2023/08/06 00:31:25;;;;;;;4.10;2.80;;;15.50;99.90;;;;;;4994763;28;20076;-38
2023/08/06 00:33:51;;;;;;;3.80;2.65;;;15.50;99.90;;;;;;5002642;28;20034;-40
2023/08/06 00:36:17;;;;;;;4.57;2.45;;;15.50;99.90;;;;;;5005001;28;20752;-40
2023/08/06 00:38:42;;;;;;;5.43;2.47;;;15.50;99.90;;;;;;5011945;28;20030;-35
2023/08/06 00:41:08;;;;;;;2.55;2.35;;;15.60;99.90;;;;;;5007072;28;20109;-41
2023/08/06 00:43:33;;;;;;;2.67;2.45;;;15.50;99.90;;;;;;4984483;28;20564;-41
2023/08/06 00:46:00;;;;;;;2.85;2.50;;;15.60;99.90;;;;;;5006257;28;20058;-40
2023/08/06 00:48:26;;;;;;;3.00;2.67;;;15.60;99.90;;;;;;5003535;28;20026;-38
2023/08/06 00:50:51;;;;;;;3.90;2.50;;;15.50;99.90;;;;;;5009933;28;20075;-41
2023/08/06 00:53:17;;;;;;;3.38;2.67;;;15.50;99.90;;;;;;5008587;28;20034;-38
2023/08/06 00:55:45;;;;;;;2.95;2.67;;;15.40;99.90;;;;;;5004337;28;20029;-38
2023/08/06 00:58:12;;;;;;;2.72;2.53;;;15.50;99.90;;;;;;5001070;28;20033;-37
2023/08/06 01:00:38;;;;;;;3.35;2.83;;;15.50;99.90;;;;;;5007664;28;20099;-39
2023/08/06 01:03:04;;;;;;;2.72;2.47;;;15.50;99.90;;;;;;5005295;28;20028;-41
2023/08/06 01:05:30;;;;;;;4.88;2.90;;;15.50;99.90;;;;;;5001440;28;20034;-39
2023/08/06 01:08:04;;;;;;;4.30;2.72;;;15.40;99.90;;;;;;5004282;28;20029;-39
2023/08/06 01:10:57;;;;;;;3.75;2.97;;;15.40;99.90;;;;;;5009055;28;20040;-40
2023/08/06 01:13:46;;;;;;;2.80;2.58;;;15.30;99.90;;;;;;5003987;28;20026;-41
2023/08/06 01:16:15;;;;;;;4.53;2.92;;;15.30;99.90;;;;;;4995979;28;20041;-39
2023/08/06 01:18:43;;;;;;;3.10;2.80;;;15.30;99.90;;;;;;4994007;28;20029;-39
2023/08/06 01:21:09;;;;;;;3.72;2.95;;;15.40;99.90;;;;;;4996906;28;20029;-40
2023/08/06 01:23:34;;;;;;;2.83;2.63;;;15.30;99.90;;;;;;5003279;28;20418;-41
2023/08/06 01:26:05;;;;;;;3.63;3.10;;;15.30;99.90;;;;;;4999020;28;20061;-41
2023/08/06 01:28:44;;;;;;;3.50;3.20;;;15.30;99.90;;;;;;5002907;28;20045;-41
2023/08/06 01:31:18;;;;;;;2.97;2.53;;;15.30;99.90;;;;;;4999433;28;20566;-40
2023/08/06 01:33:45;;;;;;;3.30;3.00;;;15.30;99.90;;;;;;5021167;28;20554;-41
2023/08/06 01:36:11;;;;;;;3.00;2.70;;;15.20;99.90;;;;;;5005807;28;20116;-39
2023/08/06 01:38:37;;;;;;;3.35;2.47;;;15.30;99.90;;;;;;5002820;28;20026;-41
2023/08/06 01:41:03;;;;;;;3.67;2.85;;;15.20;99.90;;;;;;4994892;28;20586;-40
2023/08/06 01:43:28;;;;;;;3.90;2.78;;;15.20;99.90;;;;;;5003548;28;20507;-40
2023/08/06 01:45:54;;;;;;;4.57;2.70;;;15.20;99.90;;;;;;5001835;28;20041;-37
2023/08/06 01:48:19;;;;;;;3.13;2.35;;;15.20;99.90;;;;;;5005420;28;20022;-40
2023/08/06 01:50:45;;;;;;;2.72;2.40;;;15.10;99.90;;;;;;5004554;28;20026;-41
2023/08/06 01:53:10;;;;;;;3.67;2.70;;;15.20;99.90;;;;;;5005068;28;20038;-41
2023/08/06 01:55:36;;;;;;;4.07;2.95;;;15.10;99.90;;;;;;5003682;28;20026;-36
2023/08/06 01:58:01;;;;;;;2.83;2.53;;;15.00;99.90;;;;;;5006296;28;20038;-41
2023/08/06 02:00:28;;;;;;;3.13;2.20;;;15.00;99.90;;;;;;5005620;28;20027;-42
2023/08/06 02:02:54;;;;;;;3.13;2.58;;;15.00;99.90;;;;;;5005321;28;20586;-41
2023/08/06 02:05:19;;;;;;;2.97;2.58;;;15.00;99.90;;;;;;5003288;28;20033;-39
2023/08/06 02:07:45;;;;;;;2.60;2.40;;;14.90;99.90;;;;;;4992197;28;20033;-40
2023/08/06 02:10:11;;;;;;;2.70;2.50;;;15.00;99.90;;;;;;4988656;28;20041;-38
2023/08/06 02:12:36;;;;;;;2.50;2.30;;;14.90;99.90;;;;;;4991397;28;20537;-38
2023/08/06 02:15:02;;;;;;;2.53;2.33;;;14.90;99.90;;;;;;4986943;28;20070;-33
2023/08/06 02:17:28;;;;;;;2.40;2.20;;;15.00;99.90;;;;;;4989612;28;20037;-41
2023/08/06 02:19:53;;;;;;;2.40;2.13;;;15.00;99.90;;;;;;4991131;28;20045;-41
2023/08/06 02:22:19;;;;;;;3.60;2.38;;;15.00;99.90;;;;;;4991572;28;20034;-41
2023/08/06 02:24:44;;;;;;;2.88;2.40;;;15.00;99.90;;;;;;4990172;28;20022;-38
2023/08/06 02:27:10;;;;;;;4.10;2.60;;;15.00;99.90;;;;;;4987587;28;20045;-40
2023/08/06 02:29:36;;;;;;;3.20;2.30;;;14.90;99.90;;;;;;4988614;28;20137;-40
2023/08/06 02:32:02;;;;;;;2.58;2.38;;;14.90;99.90;;;;;;4988273;28;20052;-36
2023/08/06 02:34:27;;;;;;;3.97;2.80;;;14.90;99.90;;;;;;4990515;28;20110;-36
2023/08/06 02:36:53;;;;;;;3.67;2.42;;;14.90;99.90;;;;;;4989999;28;20042;-39
2023/08/06 02:39:19;;;;;;;3.20;2.50;;;14.90;99.90;;;;;;4990743;28;20101;-40
2023/08/06 02:41:44;;;;;;;2.95;2.60;;;14.80;99.90;;;;;;4990593;28;20493;-35
2023/08/06 02:44:10;;;;;;;3.22;2.58;;;14.80;99.90;;;;;;4993001;28;20100;-38
2023/08/06 02:46:35;;;;;;;3.88;2.80;;;14.80;99.90;;;;;;4972883;28;20056;-41
2023/08/06 02:49:01;;;;;;;3.35;2.78;;;14.80;99.90;;;;;;4991568;28;20033;-38
2023/08/06 02:51:27;;;;;;;2.65;2.40;;;14.80;99.90;;;;;;4992144;28;20045;-41
2023/08/06 02:53:52;;;;;;;3.50;2.58;;;14.80;99.90;;;;;;4987732;28;20135;-39
2023/08/06 02:56:18;;;;;;;5.30;2.78;;;14.80;99.90;;;;;;4995721;28;20063;-40
2023/08/06 02:58:43;;;;;;;2.85;2.58;;;14.80;99.90;;;;;;4991063;28;20034;-36
2023/08/06 03:01:09;;;;;;;3.80;2.80;;;14.70;99.90;;;;;;4991742;28;20132;-37
2023/08/06 03:03:35;;;;;;;2.70;2.35;;;14.70;99.90;;;;;;4990110;28;20088;-35
2023/08/06 03:06:00;;;;;;;3.65;2.50;;;14.70;99.90;;;;;;4987529;28;20026;-41
2023/08/06 03:08:26;;;;;;;3.28;2.70;;;14.70;99.90;;;;;;4986870;28;20495;-35
2023/08/06 03:10:52;;;;;;;2.75;2.30;;;14.60;99.90;;;;;;4987598;28;20029;-37
2023/08/06 03:13:18;;;;;;;3.05;2.65;;;14.70;99.90;;;;;;4988914;28;20132;-38
2023/08/06 03:15:55;;;;;;;4.35;2.90;;;14.60;99.90;;;;;;4990507;28;20040;-38
2023/08/06 03:18:21;;;;;;;3.08;2.42;;;14.60;99.90;;;;;;4996692;28;20038;-35
2023/08/06 03:20:46;;;;;;;3.17;2.50;;;14.60;99.90;;;;;;4999791;28;20028;-32
2023/08/06 03:23:12;;;;;;;3.53;2.55;;;14.60;99.90;;;;;;5003950;28;20034;-32
2023/08/06 03:25:37;;;;;;;3.30;2.45;;;14.60;99.90;;;;;;5002633;28;20104;-32
2023/08/06 03:28:03;;;;;;;2.53;2.30;;;14.60;99.90;;;;;;5004679;28;20108;-36
2023/08/06 03:30:29;;;;;;;3.20;2.38;;;14.50;99.90;;;;;;5008137;28;20044;-31
2023/08/06 03:32:55;;;;;;;4.82;2.45;;;14.40;99.90;;;;;;5002352;28;20040;-32
2023/08/06 03:35:20;;;;;;;3.60;2.92;;;14.40;99.90;;;;;;5004951;28;20030;-32
2023/08/06 03:37:46;;;;;;;3.15;2.65;;;14.40;99.90;;;;;;4998899;28;20042;-33
2023/08/06 03:40:12;;;;;;;3.50;2.35;;;14.40;99.90;;;;;;5009087;28;20037;-31
2023/08/06 03:42:37;;;;;;;2.92;2.50;;;14.40;99.90;;;;;;5002550;28;20482;-31
2023/08/06 03:45:03;;;;;;;2.85;2.53;;;14.40;99.90;;;;;;4996964;28;20030;-31
2023/08/06 03:47:29;;;;;;;5.20;2.60;;;14.40;99.90;;;;;;4991123;28;20126;-31
2023/08/06 03:49:55;;;;;;;2.80;2.22;;;14.40;99.90;;;;;;4993207;28;20602;-34
2023/08/06 03:52:20;;;;;;;4.82;2.53;;;14.40;99.90;;;;;;4989351;28;20030;-31
2023/08/06 03:54:46;;;;;;;3.58;2.30;;;14.40;99.90;;;;;;4990806;28;20048;-34
2023/08/06 03:57:11;;;;;;;2.33;2.13;;;14.30;99.90;;;;;;4990526;28;20080;-34
2023/08/06 03:59:37;;;;;;;4.07;2.47;;;14.30;99.90;;;;;;4988534;28;20069;-34
2023/08/06 04:02:03;;;;;;;3.70;2.22;;;14.30;99.90;;;;;;4998164;28;20770;-31
2023/08/06 04:04:28;;;;;;;2.65;1.73;;;14.30;99.90;;;;;;5004649;28;20057;-31
2023/08/06 04:06:54;;;;;;;3.75;2.45;;;14.30;99.90;;;;;;5002460;28;20530;-35
2023/08/06 04:09:20;;;;;;;2.55;2.25;;;14.30;99.90;;;;;;5005511;28;20034;-32
2023/08/06 04:11:45;;;;;;;2.95;2.60;;;14.20;99.90;;;;;;5003187;28;20026;-30
2023/08/06 04:14:11;;;;;;;3.00;2.70;;;14.20;99.90;;;;;;5003086;28;20474;-31
2023/08/06 04:16:36;;;;;;;3.13;2.30;;;14.20;99.90;;;;;;5001619;28;20446;-35
2023/08/06 04:19:02;;;;;;;3.28;2.65;;;14.20;99.90;;;;;;5002391;28;20033;-31
2023/08/06 04:21:28;;;;;;;4.95;2.38;;;14.20;99.90;;;;;;5005948;28;20032;-31
2023/08/06 04:23:53;;;;;;;2.75;2.28;;;14.20;99.90;;;;;;4999992;28;20042;-31
2023/08/06 04:26:19;;;;;;;2.78;2.28;;;14.20;99.90;;;;;;5014126;28;20100;-31
2023/08/06 04:28:44;;;;;;;2.30;2.10;;;14.20;99.90;;;;;;4998092;28;20038;-37
2023/08/06 04:31:10;;;;;;;2.20;2.00;;;14.30;99.90;;;;;;5002273;28;20043;-40
2023/08/06 04:33:36;;;;;;;3.00;2.30;;;14.20;99.90;;;;;;5000389;28;20049;-40
2023/08/06 04:36:01;;;;;;;2.28;2.00;;;14.30;99.90;;;;;;5003941;28;20091;-41
2023/08/06 04:38:27;;;;;;;2.28;2.08;;;14.30;99.90;;;;;;4999245;28;20030;-41
2023/08/06 04:40:53;;;;;;;3.25;2.25;;;14.30;99.90;;;;;;4997355;28;20081;-39
2023/08/06 04:43:19;;;;;;;2.92;2.10;;;14.30;99.90;;;;;;5000171;28;20460;-38
2023/08/06 04:45:53;;;;;;;2.10;1.90;;;14.20;99.90;;;;;;5005435;28;20026;-37
2023/08/06 04:48:19;;;;;;;2.97;2.38;;;14.30;99.90;;;;;;5000684;28;20029;-40
2023/08/06 04:50:49;;;;;;;2.80;2.08;;;14.20;99.90;;;;;;5004298;28;20037;-40
2023/08/06 04:53:15;;;;;;;3.05;2.00;;;14.20;99.90;;;;;;5005083;28;20057;-40
2023/08/06 04:55:40;;;;;;;4.30;2.15;;;14.20;99.90;;;;;;5001894;28;20495;-39
2023/08/06 04:58:06;;;;;;;3.42;2.28;;;14.20;99.90;;;;;;4997455;28;20028;-41
2023/08/06 05:00:32;;;;;;;2.67;2.03;;;14.20;99.90;;;;;;4987711;28;20045;-38
2023/08/06 05:02:59;;;;;;;3.22;2.10;;;14.20;99.90;;;;;;4987241;28;20029;-40
2023/08/06 05:05:25;;;;;;;2.83;2.50;;;14.30;99.90;;;;;;5007539;28;20113;-41
2023/08/06 05:07:50;;;;;;;3.00;2.00;;;14.20;99.90;;;;;;5008606;28;20026;-41
2023/08/06 05:10:16;;;;;;;2.70;2.00;;;14.30;99.90;;;;;;4984420;28;20403;-38
2023/08/06 05:12:42;;;;;;;4.07;2.20;;;14.30;99.90;;;;;;5003122;28;20041;-41
2023/08/06 05:15:08;;;;;;;2.25;2.03;;;14.30;99.90;;;;;;4999443;28;20085;-40
2023/08/06 05:17:33;;;;;;;3.05;2.30;;;14.30;99.90;;;;;;5006424;28;20038;-41
2023/08/06 05:19:59;;;;;;;3.20;2.00;;;14.30;99.90;;;;;;5006766;28;20057;-39
2023/08/06 05:22:25;;;;;;;2.95;2.20;;;14.30;99.90;;;;;;5012929;28;20566;-40
2023/08/06 05:24:51;;;;;;;2.65;2.00;;;14.30;99.90;;;;;;5009337;28;20050;-40
2023/08/06 05:27:18;;;;;;;2.42;1.92;;;14.30;99.90;;;;;;5011863;28;20030;-40
2023/08/06 05:29:45;;;;;;;2.65;2.25;;;14.30;99.90;;;;;;5003494;28;20584;-39
2023/08/06 05:32:11;;;;;;;3.53;2.35;;;14.40;99.90;;;;;;5007129;28;20136;-40
2023/08/06 05:34:37;;;;;;;2.22;2.03;;;14.50;99.90;;;;;;5010670;28;20108;-40
2023/08/06 05:37:03;;;;;;;3.85;2.67;;;14.60;99.90;;;;;;5002215;28;20022;-39
2023/08/06 05:39:29;;;;;;;3.05;2.22;;;14.70;99.90;;;;;;5009217;28;20038;-30
2023/08/06 05:41:55;;;;;;;2.30;2.10;;;14.80;99.90;;;;;;4998988;28;20468;-33
2023/08/06 05:44:21;;;;;;;2.95;2.00;;;15.00;99.90;;;;;;4992664;28;20023;-32
2023/08/06 05:46:47;;;;;;;2.30;2.10;;;15.10;99.90;;;;;;4998777;28;20026;-30
2023/08/06 05:49:13;;;;;;;2.35;1.95;;;15.20;99.90;;;;;;4996099;28;20022;-32
2023/08/06 05:51:39;;;;;;;3.65;1.92;;;15.30;99.90;;;;;;5001079;28;20105;-30
2023/08/06 05:54:05;;;;;;;1.75;1.63;;;15.30;99.90;;;;;;4996313;28;20511;-33
2023/08/06 05:56:30;;;;;;;4.40;2.15;;;15.30;99.90;;;;;;4997883;28;20120;-32
2023/08/06 05:58:56;;;;;;;2.20;1.80;;;15.40;99.90;;;;;;4999026;28;20029;-31
2023/08/06 06:01:22;;;;;;;2.30;1.65;;;15.70;99.90;;;;;;5005987;28;20188;-35
2023/08/06 06:03:47;;;;;;;2.40;1.42;;;15.90;99.90;;;;;;5003374;28;20090;-33
2023/08/06 06:06:13;;;;;;;2.00;1.80;;;16.00;99.90;;;;;;5003062;28;20500;-33
2023/08/06 06:08:39;;;;;;;2.30;1.80;;;16.10;99.90;;;;;;5009055;28;20037;-31
2023/08/06 06:11:04;;;;;;;2.60;1.90;;;16.10;99.90;;;;;;5007769;28;20033;-33
2023/08/06 06:13:30;;;;;;;1.98;1.63;;;16.00;99.90;;;;;;4998306;28;20034;-33
2023/08/06 06:15:56;;;;;;;2.00;1.80;;;16.10;99.90;;;;;;5001777;28;20076;-30
2023/08/06 06:18:22;;;;;;;1.95;1.60;;;15.90;99.90;;;;;;4993627;28;20038;-34
2023/08/06 06:20:47;;;;;;;1.80;1.45;;;15.80;99.90;;;;;;4993794;28;20026;-31
2023/08/06 06:23:14;;;;;;;1.92;1.70;;;15.60;99.90;;;;;;4993556;28;20071;-31
2023/08/06 06:25:43;;;;;;;2.30;1.60;;;15.60;99.90;;;;;;4991247;28;20022;-31
2023/08/06 06:28:09;;;;;;;2.30;1.63;;;15.50;99.90;;;;;;5001756;28;20565;-32
2023/08/06 06:30:34;;;;;;;1.50;1.40;;;15.40;99.90;;;;;;4996971;28;20038;-31
2023/08/06 06:33:00;;;;;;;2.03;1.60;;;15.30;99.90;;;;;;5000740;28;20101;-33
2023/08/06 06:35:26;;;;;;;2.88;1.63;;;15.30;99.90;;;;;;5006165;28;20113;-31
2023/08/06 06:37:51;;;;;;;1.98;1.60;;;15.20;99.90;;;;;;5003627;28;20040;-31
2023/08/06 06:40:17;;;;;;;2.28;1.70;;;15.10;99.90;;;;;;4997974;28;20029;-31
2023/08/06 06:42:42;;;;;;;1.45;1.20;;;15.10;99.90;;;;;;5003999;28;21560;-31
2023/08/06 06:45:09;;;;;;;1.70;1.60;;;15.00;99.90;;;;;;4985694;28;20022;-31
2023/08/06 06:47:34;;;;;;;2.28;1.40;;;15.00;99.90;;;;;;5003717;28;20041;-30
2023/08/06 06:50:00;;;;;;;1.60;1.50;;;15.00;99.90;;;;;;4997796;28;20125;-39
2023/08/06 06:52:25;;;;;;;1.35;1.25;;;15.00;99.90;;;;;;4989234;28;20033;-38
2023/08/06 06:54:51;;;;;;;1.65;1.50;;;15.00;99.90;;;;;;5000080;28;20038;-40
2023/08/06 06:57:17;;;;;;;1.58;1.40;;;15.00;99.90;;;;;;5003755;28;20034;-40
2023/08/06 06:59:42;;;;;;;2.38;1.27;;;15.10;99.90;;;;;;5013224;28;20105;-37
2023/08/06 07:02:08;;;;;;;1.30;1.20;;;15.10;99.90;;;;;;4994089;28;20034;-40
2023/08/06 07:04:34;;;;;;;2.03;1.30;;;15.20;99.90;;;;;;5008607;28;20077;-40
2023/08/06 07:06:59;;;;;;;2.03;1.20;;;15.30;99.90;;;;;;5002258;28;21000;-40
2023/08/06 07:09:25;;;;;;;1.95;1.45;;;15.40;99.90;;;;;;5021435;28;20029;-37
2023/08/06 07:11:52;;;;;;;2.22;1.25;;;15.40;99.90;;;;;;4999447;28;20030;-41
2023/08/06 07:14:17;;;;;;;1.23;1.00;;;15.50;99.90;;;;;;4996227;28;20030;-40
2023/08/06 07:16:43;;;;;;;1.90;1.48;;;15.50;99.90;;;;;;5002767;28;20912;-40
2023/08/06 07:19:08;;;;;;;2.13;1.27;;;15.50;99.90;;;;;;5001950;28;20100;-40
2023/08/06 07:21:34;;;;;;;1.35;1.25;;;15.50;99.90;;;;;;5009461;28;20054;-37
2023/08/06 07:23:59;;;;;;;1.30;1.20;;;15.50;99.90;;;;;;4995417;28;20424;-40
2023/08/06 07:26:25;;;;;;;1.00;1.00;;;15.60;99.90;;;;;;4999697;28;20076;-40
2023/08/06 07:28:51;;;;;;;1.52;1.00;;;15.60;99.90;;;;;;5001878;28;20133;-40
2023/08/06 07:31:16;;;;;;;2.08;1.02;;;15.50;99.90;;;;;;5000643;28;20034;-39
2023/08/06 07:33:42;;;;;;;1.00;1.00;;;15.50;99.90;;;;;;5006923;28;20045;-40
2023/08/06 07:36:12;;;;;;;2.63;1.17;;;15.50;99.90;;;;;;5004502;28;20383;-40
2023/08/06 07:38:38;;;;;;;1.48;1.13;;;15.50;99.90;;;;;;5003139;28;20101;-40
2023/08/06 07:41:04;;;;;;;2.70;1.35;;;15.60;99.90;;;;;;5001220;28;20137;-38
2023/08/06 07:43:30;;;;;;;2.85;0.93;;;15.70;99.90;;;;;;4996380;28;20037;-38
2023/08/06 07:46:00;;;;;;;0.88;0.70;;;15.70;99.90;;;;;;5001951;28;20030;-37
2023/08/06 07:48:25;;;;;;;1.25;1.15;;;15.80;99.90;;;;;;5002291;28;20091;-40
2023/08/06 07:50:53;;;;;;;1.70;1.00;;;15.80;99.90;;;;;;5004274;28;20022;-37
2023/08/06 07:53:23;;;;;;;1.30;0.90;;;15.90;99.90;;;;;;5003529;28;20084;-40
2023/08/06 07:55:52;;;;;;;1.40;1.30;;;16.00;99.90;;;;;;5002269;28;20049;-37
2023/08/06 07:58:19;;;;;;;0.77;0.73;;;16.10;99.90;;;;;;5009468;28;20040;-39
2023/08/06 08:00:45;;;;;;;0.80;0.80;;;16.00;99.90;;;;;;5003405;28;20101;-31
2023/08/06 08:03:13;;;;;;;0.77;0.77;;;16.00;99.90;;;;;;5002744;28;20030;-30
2023/08/06 08:05:39;;;;;;;1.15;0.77;;;15.90;99.90;;;;;;5002861;28;20202;-30
2023/08/06 08:08:04;;;;;;;3.83;0.90;;;15.80;99.90;;;;;;5016467;28;20080;-30
2023/08/06 08:10:31;;;;;;;0.70;0.70;;;15.70;99.90;;;;;;4998702;28;20030;-33
2023/08/06 08:12:57;;;;;;;0.60;0.60;;;15.70;99.90;;;;;;5004062;28;20116;-30
2023/08/06 08:15:22;;;;;;;0.68;0.68;;;15.70;99.90;;;;;;5003804;28;20121;-31
2023/08/06 08:17:48;;;;;;;0.60;0.60;;;15.60;99.90;;;;;;5002836;28;20077;-31
2023/08/06 08:20:16;;;;;;;0.80;0.80;;;15.70;99.90;;;;;;5002277;28;20030;-30
2023/08/06 08:22:41;;;;;;;1.10;0.68;;;15.60;99.90;;;;;;5000605;28;20105;-31
2023/08/06 08:25:07;;;;;;;1.27;0.60;;;15.70;99.90;;;;;;4992097;28;20461;-34
2023/08/06 08:27:32;;;;;;;0.70;0.70;;;15.70;99.90;;;;;;4979503;28;20038;-34
2023/08/06 08:29:58;;;;;;;0.60;0.60;;;15.80;99.90;;;;;;5004172;28;20038;-34
2023/08/06 08:32:24;;;;;;;1.40;0.50;;;16.00;99.90;;;;;;4998794;28;20041;-33
2023/08/06 08:34:49;;;;;;;0.82;0.60;;;16.00;99.90;;;;;;5003651;28;20084;-31
2023/08/06 08:37:15;;;;;;;2.10;0.63;;;16.00;99.90;;;;;;4984967;28;20034;-32
2023/08/06 08:39:41;;;;;;;1.67;0.90;;;16.00;99.90;;;;;;4996353;28;20035;-34
2023/08/06 08:42:07;;;;;;;2.30;0.88;;;16.10;99.90;;;;;;4996560;28;20028;-31
2023/08/06 08:44:33;;;;;;;1.60;0.80;;;16.00;99.90;;;;;;5000551;28;20156;-31
2023/08/06 08:46:59;;;;;;;0.70;0.70;;;16.00;99.90;;;;;;5000607;28;20842;-31
2023/08/06 08:49:27;;;;;;;0.98;0.88;;;15.90;99.90;;;;;;5008454;28;20026;-30
2023/08/06 08:51:54;;;;;;;1.27;0.75;;;15.80;99.90;;;;;;5009814;28;20041;-31
2023/08/06 08:54:23;;;;;;;0.80;0.70;;;15.70;99.90;;;;;;5001822;28;20046;-32
2023/08/06 08:56:49;;;;;;;0.98;0.70;;;15.60;99.90;;;;;;5002276;28;20033;-32
2023/08/06 08:59:15;;;;;;;0.82;0.70;;;15.60;99.90;;;;;;5012021;28;20038;-34
2023/08/06 09:01:42;;;;;;;1.13;0.60;;;15.80;99.90;;;;;;5002893;28;20778;-33
2023/08/06 09:04:10;;;;;;;0.60;0.60;;;15.80;99.90;;;;;;5005703;28;20040;-34
2023/08/06 09:06:38;;;;;;;2.28;0.52;;;15.80;99.90;;;;;;4999239;28;20045;-33
2023/08/06 09:09:11;;;;;;;0.95;0.55;;;15.70;99.90;;;;;;5004514;28;20044;-35
2023/08/06 09:11:43;;;;;;;1.77;0.52;;;15.60;99.90;;;;;;5003728;28;20030;-31
2023/08/06 09:14:09;;;;;;;0.82;0.40;;;15.60;99.90;;;;;;5003817;28;20075;-30
2023/08/06 09:16:38;;;;;;;0.50;0.50;;;15.50;99.90;;;;;;5011211;28;20065;-30
2023/08/06 09:19:12;;;;;;;0.63;0.38;;;15.40;99.90;;;;;;4988451;28;20514;-31
2023/08/06 09:21:41;;;;;;;0.30;0.30;;;15.20;99.90;;;;;;5011438;28;20476;-32
2023/08/06 09:24:11;;;;;;;0.55;0.55;;;15.20;99.90;;;;;;5012017;28;20162;-30
2023/08/06 09:26:38;;;;;;;1.58;0.73;;;15.30;99.90;;;;;;5004810;28;20053;-30
2023/08/06 09:29:08;;;;;;;0.30;0.30;;;15.40;99.90;;;;;;5001926;28;20479;-32
2023/08/06 09:31:54;;;;;;;0.85;0.38;;;15.50;99.90;;;;;;5000434;28;20099;-31
2023/08/06 09:34:24;;;;;;;0.35;0.35;;;15.50;99.90;;;;;;5002631;28;20049;-33
2023/08/06 09:36:52;;;;;;;1.38;0.45;;;15.60;99.90;;;;;;4984946;28;20527;-37
2023/08/06 09:39:20;;;;;;;0.40;0.40;;;15.50;99.90;;;;;;4984467;28;20040;-30
2023/08/06 09:41:49;;;;;;;1.60;0.38;;;15.40;99.90;;;;;;4987657;28;20026;-34
2023/08/06 09:44:19;;;;;;;1.50;0.98;;;15.30;99.90;;;;;;5007183;28;20051;-36
2023/08/06 09:46:52;;;;;;;0.73;0.40;;;15.50;99.90;;;;;;5001831;28;20153;-35
2023/08/06 09:49:20;;;;;;;1.17;0.40;;;15.60;99.90;;;;;;5008513;28;20038;-31
2023/08/06 09:51:50;;;;;;;1.00;0.47;;;15.70;99.90;;;;;;5005484;28;20033;-34
2023/08/06 09:54:16;;;;;;;0.45;0.32;;;15.80;99.90;;;;;;5007391;28;20457;-35
2023/08/06 09:56:43;;;;;;;0.40;0.40;;;16.00;99.90;;;;;;5007964;28;20034;-31
2023/08/06 09:59:10;;;;;;;1.55;0.57;;;16.10;99.90;;;;;;5003919;28;20028;-30
2023/08/06 10:01:37;;;;;;;0.20;0.20;;;16.20;99.90;;;;;;5002266;28;20072;-31
2023/08/06 10:04:04;;;;;;;1.92;0.35;;;16.00;99.90;;;;;;4997125;28;20756;-31
2023/08/06 10:06:35;;;;;;;0.73;0.60;;;16.00;99.90;;;;;;5002855;28;20034;-31
2023/08/06 10:09:00;;;;;;;0.30;0.30;;;15.90;99.90;;;;;;5003450;28;20065;-32
2023/08/06 10:11:28;;;;;;;1.95;0.70;;;15.90;99.90;;;;;;5006603;28;20464;-32
2023/08/06 10:14:03;;;;;;;0.50;0.40;;;15.90;99.90;;;;;;5007516;28;20030;-32
2023/08/06 10:16:30;;;;;;;0.40;0.40;;;15.80;99.90;;;;;;5003439;28;20512;-31
2023/08/06 10:18:57;;;;;;;0.40;0.40;;;15.70;99.90;;;;;;5004187;28;20502;-34
2023/08/06 10:21:24;;;;;;;0.32;0.32;;;15.60;99.90;;;;;;5003397;28;20476;-32
2023/08/06 10:23:56;;;;;;;0.32;0.32;;;15.50;99.90;;;;;;4984779;28;20777;-31
2023/08/06 10:26:29;;;;;;;0.73;0.30;;;15.30;99.90;;;;;;5001904;28;20543;-38
2023/08/06 10:28:55;;;;;;;0.43;0.43;;;15.30;99.90;;;;;;4997083;28;20204;-34
2023/08/06 10:31:54;;;;;;;0.75;0.38;;;15.20;99.90;;;;;;5000656;28;20037;-32
2023/08/06 10:34:20;;;;;;;0.65;0.30;;;15.30;99.90;;;;;;5000604;28;20023;-33
2023/08/06 10:36:45;;;;;;;0.22;0.22;;;15.30;99.90;;;;;;5004050;28;20027;-33
2023/08/06 10:39:14;;;;;;;0.20;0.20;;;15.40;99.90;;;;;;5005852;28;20030;-33
2023/08/06 10:41:42;;;;;;;0.20;0.20;;;15.30;99.90;;;;;;5004805;28;20022;-34
2023/08/06 10:44:11;;;;;;;0.20;0.20;;;15.30;99.90;;;;;;5008114;28;20382;-33
2023/08/06 10:46:38;;;;;;;0.20;0.20;;;15.10;99.90;;;;;;5004560;28;20033;-31
2023/08/06 10:49:04;;;;;;;1.55;0.30;;;15.10;99.90;;;;;;5002352;28;20034;-32
2023/08/06 10:51:30;;;;;;;0.57;0.22;;;15.20;99.90;;;;;;5003939;28;20101;-33
2023/08/06 10:53:57;;;;;;;0.73;0.40;;;15.10;99.90;;;;;;5001715;28;20159;-33
2023/08/06 10:56:27;;;;;;;0.30;0.30;;;15.10;99.90;;;;;;5001388;28;20117;-32
2023/08/06 10:58:56;;;;;;;0.35;0.20;;;15.10;99.90;;;;;;5006546;28;20639;-32
2023/08/06 11:01:23;;;;;;;0.38;0.38;;;15.20;99.90;;;;;;4999785;28;20229;-33
2023/08/06 11:03:50;;;;;;;0.30;0.25;;;15.30;99.90;;;;;;5001096;28;20442;-32
2023/08/06 11:06:21;;;;;;;4.78;0.35;;;15.60;99.90;;;;;;5004236;28;20038;-36
2023/08/06 11:08:51;;;;;;;0.30;0.30;;;15.60;99.90;;;;;;5004969;28;20037;-32
2023/08/06 11:11:18;;;;;;;0.10;0.10;;;15.60;99.90;;;;;;5003245;28;20049;-35
2023/08/06 11:13:48;;;;;;;0.45;0.28;;;15.70;99.90;;;;;;4986748;28;20279;-33
2023/08/06 11:16:16;;;;;;;0.20;0.20;;;15.70;99.90;;;;;;5011492;28;20029;-32
2023/08/06 11:18:42;;;;;;;0.57;0.20;;;15.70;99.90;;;;;;5003743;28;20033;-37
2023/08/06 11:21:08;;;;;;;3.10;0.20;;;15.90;99.90;;;;;;5000323;28;20109;-32
2023/08/06 11:23:35;;;;;;;0.35;0.35;;;15.80;99.90;;;;;;4985370;28;20475;-32
2023/08/06 11:26:01;;;;;;;0.75;0.32;;;15.90;99.90;;;;;;5009961;28;20096;-32
2023/08/06 11:28:27;;;;;;;0.10;0.10;;;16.10;99.90;;;;;;4997373;28;20086;-32
2023/08/06 11:30:55;;;;;;;0.45;0.32;;;16.50;99.90;;;;;;4969066;28;20080;-32
2023/08/06 11:33:27;;;;;;;0.20;0.20;;;16.70;99.90;;;;;;4993368;28;20030;-36
2023/08/06 11:35:58;;;;;;;0.20;0.20;;;16.90;99.90;;;;;;4984195;28;20049;-32
2023/08/06 11:38:30;;;;;;;0.22;0.22;;;16.90;99.90;;;;;;4992922;28;20100;-35
2023/08/06 11:40:56;;;;;;;0.17;0.17;;;16.80;99.90;;;;;;4966951;28;20023;-32
2023/08/06 11:43:22;;;;;;;0.80;0.80;;;16.70;99.90;;;;;;4985470;28;20082;-32
2023/08/06 11:45:52;;;;;;;0.73;0.13;;;16.60;99.90;;;;;;4980442;28;20057;-32
2023/08/06 11:48:18;;;;;;;0.20;0.20;;;16.50;99.90;;;;;;4989279;28;20140;-33
2023/08/06 11:50:43;;;;;;;0.55;0.40;;;16.30;99.90;;;;;;4982924;28;20554;-32
2023/08/06 11:53:13;;;;;;;0.22;0.20;;;16.10;99.90;;;;;;4986037;28;20435;-32
2023/08/06 11:55:38;;;;;;;0.10;0.10;;;15.80;99.90;;;;;;4981977;28;20467;-35
2023/08/06 11:58:05;;;;;;;0.73;0.22;;;15.80;99.90;;;;;;4976995;28;20038;-33
2023/08/06 12:00:30;;;;;;;0.20;0.20;;;15.90;99.90;;;;;;4987135;28;20113;-32
2023/08/06 12:02:56;;;;;;;0.13;0.13;;;16.00;99.90;;;;;;4976062;28;20038;-32
2023/08/06 12:05:24;;;;;;;0.20;0.20;;;16.10;99.90;;;;;;4980251;28;20057;-31
2023/08/06 12:07:57;;;;;;;1.20;0.30;;;16.10;99.90;;;;;;4986102;28;20386;-32
2023/08/06 12:10:24;;;;;;;18.17;1.55;;;15.90;99.90;;;;;;4986536;28;20468;-35
2023/08/06 12:12:50;;;;;;;0.65;0.40;;;15.80;99.90;;;;;;4983588;28;20041;-34
2023/08/06 12:15:16;;;;;;;0.20;0.20;;;15.70;99.90;;;;;;4985590;28;20496;-35
2023/08/06 12:17:42;;;;;;;0.20;0.20;;;15.60;99.90;;;;;;4990753;28;20035;-32
2023/08/06 12:20:09;;;;;;;0.70;0.20;;;15.30;99.90;;;;;;4988063;28;20027;-33
2023/08/06 12:22:37;;;;;;;1.70;0.32;;;15.40;99.90;;;;;;4983687;28;20023;-33
2023/08/06 12:25:08;;;;;;;0.20;0.20;;;15.30;99.90;;;;;;4979740;28;20041;-35
2023/08/06 12:27:37;;;;;;;0.30;0.30;;;15.30;99.90;;;;;;4988833;28;20531;-34
2023/08/06 12:30:04;;;;;;;0.35;0.35;;;15.30;99.90;;;;;;5005154;28;20057;-32
2023/08/06 12:32:30;;;;;;;0.20;0.20;;;15.30;99.90;;;;;;5004134;28;20031;-35
2023/08/06 12:34:55;;;;;;;0.10;0.10;;;15.40;99.90;;;;;;5006470;28;20120;-32
2023/08/06 12:37:21;;;;;;;0.80;0.20;;;15.70;99.90;;;;;;5008800;28;20034;-32
2023/08/06 12:39:47;;;;;;;0.20;0.20;;;15.90;99.90;;;;;;5005110;28;20025;-40
2023/08/06 12:42:13;;;;;;;0.20;0.20;;;16.20;99.90;;;;;;5007711;28;20033;-40
2023/08/06 12:44:38;;;;;;;5.03;0.73;;;16.20;99.90;;;;;;5003780;28;20061;-40
2023/08/06 12:47:04;;;;;;;0.60;0.28;;;16.30;99.90;;;;;;5003624;28;20041;-39